sensor_id;sensor_type;location;lat;lon;timestamp;P1;durP1;ratioP1;P2;durP2;ratioP2
21777;SDS011;11050;52.222;20.916;2023-01-24T00:00:39;71.13;;;29.17;;
21777;SDS011;11050;52.222;20.916;2023-01-24T00:03:06;66.87;;;28.60;;
21777;SDS011;11050;52.222;20.916;2023-01-24T00:05:37;66.53;;;27.77;;
21777;SDS011;11050;52.222;20.916;2023-01-24T00:08:05;62.90;;;27.63;;
21777;SDS011;11050;52.222;20.916;2023-01-24T00:10:31;68.90;;;26.03;;
21777;SDS011;11050;52.222;20.916;2023-01-24T00:12:57;64.03;;;27.90;;
21777;SDS011;11050;52.222;20.916;2023-01-24T00:15:23;68.67;;;27.80;;
21777;SDS011;11050;52.222;20.916;2023-01-24T00:17:49;68.73;;;26.87;;
21777;SDS011;11050;52.222;20.916;2023-01-24T00:20:15;64.97;;;26.40;;
21777;SDS011;11050;52.222;20.916;2023-01-24T00:22:41;67.23;;;27.63;;
21777;SDS011;11050;52.222;20.916;2023-01-24T00:25:07;74.83;;;28.07;;
21777;SDS011;11050;52.222;20.916;2023-01-24T00:27:34;73.80;;;28.43;;
21777;SDS011;11050;52.222;20.916;2023-01-24T00:30:00;70.33;;;27.33;;
21777;SDS011;11050;52.222;20.916;2023-01-24T00:32:28;67.37;;;27.50;;
21777;SDS011;11050;52.222;20.916;2023-01-24T00:34:53;66.60;;;26.90;;
21777;SDS011;11050;52.222;20.916;2023-01-24T00:37:20;71.43;;;28.70;;
21777;SDS011;11050;52.222;20.916;2023-01-24T00:39:46;67.37;;;27.57;;
21777;SDS011;11050;52.222;20.916;2023-01-24T00:42:11;72.13;;;27.97;;
21777;SDS011;11050;52.222;20.916;2023-01-24T00:44:37;70.23;;;27.30;;
21777;SDS011;11050;52.222;20.916;2023-01-24T00:47:03;72.83;;;28.93;;
21777;SDS011;11050;52.222;20.916;2023-01-24T00:49:29;69.70;;;28.23;;
21777;SDS011;11050;52.222;20.916;2023-01-24T00:51:54;75.23;;;28.17;;
21777;SDS011;11050;52.222;20.916;2023-01-24T00:54:20;71.60;;;28.23;;
21777;SDS011;11050;52.222;20.916;2023-01-24T00:56:46;69.57;;;27.47;;
21777;SDS011;11050;52.222;20.916;2023-01-24T00:59:12;69.63;;;27.77;;
21777;SDS011;11050;52.222;20.916;2023-01-24T01:01:38;71.87;;;28.30;;
21777;SDS011;11050;52.222;20.916;2023-01-24T01:04:04;74.97;;;28.93;;
21777;SDS011;11050;52.222;20.916;2023-01-24T01:06:30;74.23;;;29.57;;
21777;SDS011;11050;52.222;20.916;2023-01-24T01:08:56;72.60;;;29.00;;
21777;SDS011;11050;52.222;20.916;2023-01-24T01:11:22;69.53;;;28.23;;
21777;SDS011;11050;52.222;20.916;2023-01-24T01:13:48;69.03;;;27.70;;
21777;SDS011;11050;52.222;20.916;2023-01-24T01:16:16;68.57;;;27.97;;
21777;SDS011;11050;52.222;20.916;2023-01-24T01:18:47;66.40;;;27.90;;
21777;SDS011;11050;52.222;20.916;2023-01-24T01:21:16;70.17;;;27.57;;
21777;SDS011;11050;52.222;20.916;2023-01-24T01:23:44;74.77;;;29.13;;
21777;SDS011;11050;52.222;20.916;2023-01-24T01:26:15;75.93;;;29.00;;
21777;SDS011;11050;52.222;20.916;2023-01-24T01:28:44;76.23;;;28.83;;
21777;SDS011;11050;52.222;20.916;2023-01-24T01:31:10;73.17;;;28.50;;
21777;SDS011;11050;52.222;20.916;2023-01-24T01:33:37;70.80;;;27.60;;
21777;SDS011;11050;52.222;20.916;2023-01-24T01:36:03;75.17;;;27.07;;
21777;SDS011;11050;52.222;20.916;2023-01-24T01:38:29;70.10;;;28.20;;
21777;SDS011;11050;52.222;20.916;2023-01-24T01:40:55;75.87;;;28.40;;
21777;SDS011;11050;52.222;20.916;2023-01-24T01:43:23;70.97;;;27.77;;
21777;SDS011;11050;52.222;20.916;2023-01-24T01:45:52;65.63;;;29.07;;
21777;SDS011;11050;52.222;20.916;2023-01-24T01:48:47;66.63;;;27.37;;
21777;SDS011;11050;52.222;20.916;2023-01-24T01:54:27;66.97;;;28.10;;
21777;SDS011;11050;52.222;20.916;2023-01-24T01:57:03;76.77;;;28.43;;
21777;SDS011;11050;52.222;20.916;2023-01-24T01:59:39;73.70;;;27.33;;
21777;SDS011;11050;52.222;20.916;2023-01-24T02:02:26;64.80;;;26.33;;
21777;SDS011;11050;52.222;20.916;2023-01-24T02:05:01;62.63;;;26.47;;
21777;SDS011;11050;52.222;20.916;2023-01-24T02:07:42;67.93;;;27.83;;
21777;SDS011;11050;52.222;20.916;2023-01-24T02:10:16;69.40;;;27.93;;
21777;SDS011;11050;52.222;20.916;2023-01-24T02:12:47;69.67;;;27.63;;
21777;SDS011;11050;52.222;20.916;2023-01-24T02:15:18;61.80;;;26.47;;
21777;SDS011;11050;52.222;20.916;2023-01-24T02:18:06;67.43;;;27.37;;
21777;SDS011;11050;52.222;20.916;2023-01-24T02:20:39;70.77;;;27.87;;
21777;SDS011;11050;52.222;20.916;2023-01-24T02:23:30;60.13;;;25.63;;
21777;SDS011;11050;52.222;20.916;2023-01-24T02:26:24;69.73;;;28.07;;
21777;SDS011;11050;52.222;20.916;2023-01-24T02:29:00;63.53;;;26.23;;
21777;SDS011;11050;52.222;20.916;2023-01-24T02:31:57;64.30;;;25.90;;
21777;SDS011;11050;52.222;20.916;2023-01-24T02:34:26;64.93;;;26.77;;
21777;SDS011;11050;52.222;20.916;2023-01-24T02:36:55;71.43;;;28.10;;
21777;SDS011;11050;52.222;20.916;2023-01-24T02:39:29;66.20;;;26.10;;
21777;SDS011;11050;52.222;20.916;2023-01-24T02:42:20;61.87;;;25.57;;
21777;SDS011;11050;52.222;20.916;2023-01-24T02:45:00;58.67;;;25.00;;
21777;SDS011;11050;52.222;20.916;2023-01-24T02:47:49;67.03;;;26.53;;
21777;SDS011;11050;52.222;20.916;2023-01-24T02:50:18;61.63;;;27.10;;
21777;SDS011;11050;52.222;20.916;2023-01-24T02:52:46;69.27;;;26.23;;
21777;SDS011;11050;52.222;20.916;2023-01-24T02:55:32;65.27;;;25.63;;
21777;SDS011;11050;52.222;20.916;2023-01-24T02:57:58;71.40;;;27.37;;
21777;SDS011;11050;52.222;20.916;2023-01-24T03:00:32;66.30;;;27.17;;
21777;SDS011;11050;52.222;20.916;2023-01-24T03:03:06;60.23;;;24.93;;
21777;SDS011;11050;52.222;20.916;2023-01-24T03:05:33;65.97;;;27.40;;
21777;SDS011;11050;52.222;20.916;2023-01-24T03:08:19;68.87;;;26.07;;
21777;SDS011;11050;52.222;20.916;2023-01-24T03:10:45;58.07;;;25.77;;
21777;SDS011;11050;52.222;20.916;2023-01-24T03:13:12;59.60;;;23.87;;
21777;SDS011;11050;52.222;20.916;2023-01-24T03:16:00;64.00;;;26.23;;
21777;SDS011;11050;52.222;20.916;2023-01-24T03:18:46;58.53;;;25.37;;
21777;SDS011;11050;52.222;20.916;2023-01-24T03:21:31;62.93;;;25.43;;
21777;SDS011;11050;52.222;20.916;2023-01-24T03:24:15;65.90;;;26.63;;
21777;SDS011;11050;52.222;20.916;2023-01-24T03:26:59;59.07;;;25.47;;
21777;SDS011;11050;52.222;20.916;2023-01-24T03:29:44;62.27;;;27.37;;
21777;SDS011;11050;52.222;20.916;2023-01-24T03:32:28;55.90;;;24.40;;
21777;SDS011;11050;52.222;20.916;2023-01-24T03:35:12;60.00;;;25.00;;
21777;SDS011;11050;52.222;20.916;2023-01-24T03:37:38;59.80;;;25.20;;
21777;SDS011;11050;52.222;20.916;2023-01-24T03:40:28;60.74;;;26.34;;
21777;SDS011;11050;52.222;20.916;2023-01-24T03:42:54;68.20;;;25.97;;
21777;SDS011;11050;52.222;20.916;2023-01-24T03:45:21;61.57;;;26.03;;
21777;SDS011;11050;52.222;20.916;2023-01-24T03:47:50;58.20;;;23.57;;
21777;SDS011;11050;52.222;20.916;2023-01-24T03:53:20;57.93;;;23.80;;
21777;SDS011;11050;52.222;20.916;2023-01-24T03:55:53;57.47;;;24.67;;
21777;SDS011;11050;52.222;20.916;2023-01-24T03:58:21;62.17;;;24.33;;
21777;SDS011;11050;52.222;20.916;2023-01-24T04:00:48;56.13;;;22.33;;
21777;SDS011;11050;52.222;20.916;2023-01-24T04:03:14;56.23;;;22.50;;
21777;SDS011;11050;52.222;20.916;2023-01-24T04:05:40;55.07;;;22.83;;
21777;SDS011;11050;52.222;20.916;2023-01-24T04:08:06;56.43;;;23.57;;
21777;SDS011;11050;52.222;20.916;2023-01-24T04:10:32;54.40;;;22.73;;
21777;SDS011;11050;52.222;20.916;2023-01-24T04:12:59;59.90;;;24.37;;
21777;SDS011;11050;52.222;20.916;2023-01-24T04:15:27;53.07;;;24.27;;
21777;SDS011;11050;52.222;20.916;2023-01-24T04:17:57;55.20;;;22.53;;
21777;SDS011;11050;52.222;20.916;2023-01-24T04:20:27;56.10;;;23.70;;
21777;SDS011;11050;52.222;20.916;2023-01-24T04:22:59;56.13;;;25.23;;
21777;SDS011;11050;52.222;20.916;2023-01-24T04:25:27;57.67;;;23.53;;
21777;SDS011;11050;52.222;20.916;2023-01-24T04:27:53;53.90;;;23.67;;
21777;SDS011;11050;52.222;20.916;2023-01-24T04:30:19;56.67;;;23.50;;
21777;SDS011;11050;52.222;20.916;2023-01-24T04:32:45;60.40;;;25.13;;
21777;SDS011;11050;52.222;20.916;2023-01-24T04:35:21;63.20;;;24.23;;
21777;SDS011;11050;52.222;20.916;2023-01-24T04:37:56;57.77;;;24.83;;
21777;SDS011;11050;52.222;20.916;2023-01-24T04:40:24;58.90;;;24.93;;
21777;SDS011;11050;52.222;20.916;2023-01-24T04:42:50;65.17;;;25.67;;
21777;SDS011;11050;52.222;20.916;2023-01-24T04:45:15;59.97;;;25.43;;
21777;SDS011;11050;52.222;20.916;2023-01-24T04:47:41;54.07;;;23.83;;
21777;SDS011;11050;52.222;20.916;2023-01-24T04:50:07;61.50;;;24.37;;
21777;SDS011;11050;52.222;20.916;2023-01-24T04:52:34;58.30;;;24.73;;
21777;SDS011;11050;52.222;20.916;2023-01-24T04:54:59;56.90;;;24.10;;
21777;SDS011;11050;52.222;20.916;2023-01-24T04:57:25;56.33;;;23.80;;
21777;SDS011;11050;52.222;20.916;2023-01-24T04:59:51;59.57;;;25.10;;
21777;SDS011;11050;52.222;20.916;2023-01-24T05:02:16;58.80;;;24.80;;
21777;SDS011;11050;52.222;20.916;2023-01-24T05:04:42;58.83;;;24.93;;
21777;SDS011;11050;52.222;20.916;2023-01-24T05:07:08;57.93;;;23.77;;
21777;SDS011;11050;52.222;20.916;2023-01-24T05:09:34;59.43;;;24.83;;
21777;SDS011;11050;52.222;20.916;2023-01-24T05:12:00;57.67;;;23.87;;
21777;SDS011;11050;52.222;20.916;2023-01-24T05:14:26;53.80;;;24.27;;
21777;SDS011;11050;52.222;20.916;2023-01-24T05:16:51;56.97;;;24.93;;
21777;SDS011;11050;52.222;20.916;2023-01-24T05:19:17;57.90;;;25.13;;
21777;SDS011;11050;52.222;20.916;2023-01-24T05:21:43;58.73;;;24.33;;
21777;SDS011;11050;52.222;20.916;2023-01-24T05:24:09;56.80;;;23.90;;
21777;SDS011;11050;52.222;20.916;2023-01-24T05:26:34;51.90;;;22.77;;
21777;SDS011;11050;52.222;20.916;2023-01-24T05:29:00;55.87;;;23.93;;
21777;SDS011;11050;52.222;20.916;2023-01-24T05:31:26;58.67;;;23.50;;
21777;SDS011;11050;52.222;20.916;2023-01-24T05:33:52;53.73;;;24.10;;
21777;SDS011;11050;52.222;20.916;2023-01-24T05:36:19;59.90;;;24.00;;
21777;SDS011;11050;52.222;20.916;2023-01-24T05:38:48;50.33;;;22.43;;
21777;SDS011;11050;52.222;20.916;2023-01-24T05:41:15;54.17;;;23.60;;
21777;SDS011;11050;52.222;20.916;2023-01-24T05:43:44;55.67;;;23.93;;
21777;SDS011;11050;52.222;20.916;2023-01-24T05:46:12;52.40;;;24.30;;
21777;SDS011;11050;52.222;20.916;2023-01-24T05:48:41;56.50;;;24.23;;
21777;SDS011;11050;52.222;20.916;2023-01-24T05:51:09;56.07;;;24.67;;
21777;SDS011;11050;52.222;20.916;2023-01-24T05:53:39;54.93;;;24.07;;
21777;SDS011;11050;52.222;20.916;2023-01-24T05:56:07;61.87;;;25.13;;
21777;SDS011;11050;52.222;20.916;2023-01-24T05:58:38;55.67;;;25.13;;
21777;SDS011;11050;52.222;20.916;2023-01-24T06:01:06;52.47;;;23.60;;
21777;SDS011;11050;52.222;20.916;2023-01-24T06:03:37;56.17;;;26.20;;
21777;SDS011;11050;52.222;20.916;2023-01-24T06:06:06;56.70;;;24.57;;
21777;SDS011;11050;52.222;20.916;2023-01-24T06:08:34;55.53;;;23.83;;
21777;SDS011;11050;52.222;20.916;2023-01-24T06:11:01;54.83;;;25.00;;
21777;SDS011;11050;52.222;20.916;2023-01-24T06:13:32;54.17;;;24.23;;
21777;SDS011;11050;52.222;20.916;2023-01-24T06:16:02;53.90;;;23.80;;
21777;SDS011;11050;52.222;20.916;2023-01-24T06:18:31;60.17;;;25.60;;
21777;SDS011;11050;52.222;20.916;2023-01-24T06:20:58;54.40;;;25.33;;
21777;SDS011;11050;52.222;20.916;2023-01-24T06:23:37;62.60;;;24.90;;
21777;SDS011;11050;52.222;20.916;2023-01-24T06:26:03;52.90;;;24.97;;
21777;SDS011;11050;52.222;20.916;2023-01-24T06:28:30;53.00;;;23.23;;
21777;SDS011;11050;52.222;20.916;2023-01-24T06:30:59;52.37;;;22.63;;
21777;SDS011;11050;52.222;20.916;2023-01-24T06:36:22;55.30;;;24.40;;
21777;SDS011;11050;52.222;20.916;2023-01-24T06:39:00;53.20;;;24.47;;
21777;SDS011;11050;52.222;20.916;2023-01-24T06:41:26;54.00;;;24.63;;
21777;SDS011;11050;52.222;20.916;2023-01-24T06:43:52;50.80;;;21.90;;
21777;SDS011;11050;52.222;20.916;2023-01-24T06:46:18;56.47;;;24.40;;
21777;SDS011;11050;52.222;20.916;2023-01-24T06:48:44;58.27;;;23.30;;
21777;SDS011;11050;52.222;20.916;2023-01-24T06:51:13;50.03;;;23.33;;
21777;SDS011;11050;52.222;20.916;2023-01-24T06:53:39;64.47;;;27.17;;
21777;SDS011;11050;52.222;20.916;2023-01-24T06:56:06;51.70;;;23.43;;
21777;SDS011;11050;52.222;20.916;2023-01-24T06:58:32;53.30;;;24.00;;
21777;SDS011;11050;52.222;20.916;2023-01-24T07:00:58;56.57;;;24.00;;
21777;SDS011;11050;52.222;20.916;2023-01-24T07:03:24;47.87;;;23.37;;
21777;SDS011;11050;52.222;20.916;2023-01-24T07:05:50;53.63;;;23.53;;
21777;SDS011;11050;52.222;20.916;2023-01-24T07:08:15;51.57;;;25.17;;
21777;SDS011;11050;52.222;20.916;2023-01-24T07:10:42;59.23;;;25.60;;
21777;SDS011;11050;52.222;20.916;2023-01-24T07:13:08;58.03;;;24.10;;
21777;SDS011;11050;52.222;20.916;2023-01-24T07:15:34;53.37;;;24.23;;
21777;SDS011;11050;52.222;20.916;2023-01-24T07:18:10;55.37;;;24.90;;
21777;SDS011;11050;52.222;20.916;2023-01-24T07:20:38;56.73;;;23.47;;
21777;SDS011;11050;52.222;20.916;2023-01-24T07:23:04;54.00;;;23.97;;
21777;SDS011;11050;52.222;20.916;2023-01-24T07:25:32;51.93;;;23.77;;
21777;SDS011;11050;52.222;20.916;2023-01-24T07:28:02;54.73;;;23.00;;
21777;SDS011;11050;52.222;20.916;2023-01-24T07:30:28;52.43;;;25.43;;
21777;SDS011;11050;52.222;20.916;2023-01-24T07:32:54;50.87;;;22.33;;
21777;SDS011;11050;52.222;20.916;2023-01-24T07:35:20;48.10;;;21.93;;
21777;SDS011;11050;52.222;20.916;2023-01-24T07:37:45;46.20;;;22.77;;
21777;SDS011;11050;52.222;20.916;2023-01-24T07:40:11;51.90;;;23.37;;
21777;SDS011;11050;52.222;20.916;2023-01-24T07:42:37;46.53;;;23.70;;
21777;SDS011;11050;52.222;20.916;2023-01-24T07:45:03;50.20;;;22.50;;
21777;SDS011;11050;52.222;20.916;2023-01-24T07:47:29;56.80;;;25.33;;
21777;SDS011;11050;52.222;20.916;2023-01-24T07:49:55;48.23;;;23.50;;
21777;SDS011;11050;52.222;20.916;2023-01-24T07:52:21;49.17;;;22.93;;
21777;SDS011;11050;52.222;20.916;2023-01-24T07:54:47;58.10;;;23.87;;
21777;SDS011;11050;52.222;20.916;2023-01-24T07:57:13;55.60;;;23.90;;
21777;SDS011;11050;52.222;20.916;2023-01-24T07:59:40;51.40;;;24.17;;
21777;SDS011;11050;52.222;20.916;2023-01-24T08:02:08;50.27;;;24.40;;
21777;SDS011;11050;52.222;20.916;2023-01-24T08:04:36;54.57;;;25.23;;
21777;SDS011;11050;52.222;20.916;2023-01-24T08:07:02;53.73;;;26.03;;
21777;SDS011;11050;52.222;20.916;2023-01-24T08:09:57;48.17;;;23.83;;
21777;SDS011;11050;52.222;20.916;2023-01-24T08:12:23;55.33;;;25.50;;
21777;SDS011;11050;52.222;20.916;2023-01-24T08:14:48;49.77;;;22.73;;
21777;SDS011;11050;52.222;20.916;2023-01-24T08:17:15;50.83;;;25.20;;
21777;SDS011;11050;52.222;20.916;2023-01-24T08:19:41;53.00;;;24.83;;
21777;SDS011;11050;52.222;20.916;2023-01-24T08:22:07;55.50;;;25.03;;
21777;SDS011;11050;52.222;20.916;2023-01-24T08:24:33;60.23;;;26.53;;
21777;SDS011;11050;52.222;20.916;2023-01-24T08:26:59;53.57;;;25.70;;
21777;SDS011;11050;52.222;20.916;2023-01-24T08:29:27;59.37;;;27.40;;
21777;SDS011;11050;52.222;20.916;2023-01-24T08:31:53;51.80;;;25.20;;
21777;SDS011;11050;52.222;20.916;2023-01-24T08:34:19;48.97;;;24.07;;
21777;SDS011;11050;52.222;20.916;2023-01-24T08:36:45;52.50;;;25.17;;
21777;SDS011;11050;52.222;20.916;2023-01-24T08:39:11;59.30;;;25.57;;
21777;SDS011;11050;52.222;20.916;2023-01-24T08:41:37;51.37;;;25.30;;
21777;SDS011;11050;52.222;20.916;2023-01-24T08:44:03;44.53;;;23.23;;
21777;SDS011;11050;52.222;20.916;2023-01-24T08:46:30;47.70;;;23.97;;
21777;SDS011;11050;52.222;20.916;2023-01-24T08:48:56;49.97;;;23.30;;
21777;SDS011;11050;52.222;20.916;2023-01-24T08:51:23;50.57;;;24.13;;
21777;SDS011;11050;52.222;20.916;2023-01-24T08:53:49;47.67;;;22.97;;
21777;SDS011;11050;52.222;20.916;2023-01-24T08:56:15;49.10;;;24.67;;
21777;SDS011;11050;52.222;20.916;2023-01-24T08:58:41;46.27;;;23.40;;
21777;SDS011;11050;52.222;20.916;2023-01-24T09:01:07;49.13;;;24.90;;
21777;SDS011;11050;52.222;20.916;2023-01-24T09:03:34;50.10;;;24.20;;
21777;SDS011;11050;52.222;20.916;2023-01-24T09:06:00;50.73;;;25.63;;
21777;SDS011;11050;52.222;20.916;2023-01-24T09:08:26;51.30;;;25.10;;
21777;SDS011;11050;52.222;20.916;2023-01-24T09:10:52;54.20;;;26.23;;
21777;SDS011;11050;52.222;20.916;2023-01-24T09:13:18;56.47;;;26.10;;
21777;SDS011;11050;52.222;20.916;2023-01-24T09:15:44;59.70;;;26.80;;
21777;SDS011;11050;52.222;20.916;2023-01-24T09:18:10;59.30;;;26.93;;
21777;SDS011;11050;52.222;20.916;2023-01-24T09:20:36;58.57;;;27.97;;
21777;SDS011;11050;52.222;20.916;2023-01-24T09:23:34;54.77;;;26.73;;
21777;SDS011;11050;52.222;20.916;2023-01-24T09:25:53;50.23;;;25.57;;
21777;SDS011;11050;52.222;20.916;2023-01-24T09:28:19;59.53;;;26.67;;
21777;SDS011;11050;52.222;20.916;2023-01-24T09:30:46;56.57;;;26.23;;
21777;SDS011;11050;52.222;20.916;2023-01-24T09:33:14;59.30;;;27.83;;
21777;SDS011;11050;52.222;20.916;2023-01-24T09:35:42;55.13;;;27.07;;
21777;SDS011;11050;52.222;20.916;2023-01-24T09:38:25;55.63;;;25.87;;
21777;SDS011;11050;52.222;20.916;2023-01-24T09:46:50;51.33;;;25.57;;
21777;SDS011;11050;52.222;20.916;2023-01-24T09:49:31;54.97;;;26.63;;
21777;SDS011;11050;52.222;20.916;2023-01-24T09:52:12;61.33;;;27.43;;
21777;SDS011;11050;52.222;20.916;2023-01-24T09:55:25;56.60;;;25.60;;
21777;SDS011;11050;52.222;20.916;2023-01-24T10:00:53;53.10;;;26.30;;
21777;SDS011;11050;52.222;20.916;2023-01-24T10:03:21;53.33;;;25.63;;
21777;SDS011;11050;52.222;20.916;2023-01-24T10:05:52;57.87;;;26.77;;
21777;SDS011;11050;52.222;20.916;2023-01-24T10:11:11;56.43;;;26.60;;
21777;SDS011;11050;52.222;20.916;2023-01-24T10:25:58;50.10;;;24.30;;
21777;SDS011;11050;52.222;20.916;2023-01-24T10:28:41;50.57;;;24.70;;
21777;SDS011;11050;52.222;20.916;2023-01-24T10:31:14;56.13;;;25.33;;
21777;SDS011;11050;52.222;20.916;2023-01-24T10:33:52;55.17;;;25.97;;
21777;SDS011;11050;52.222;20.916;2023-01-24T10:39:35;49.57;;;23.67;;
21777;SDS011;11050;52.222;20.916;2023-01-24T10:42:08;51.37;;;25.23;;
21777;SDS011;11050;52.222;20.916;2023-01-24T10:44:46;53.50;;;24.90;;
21777;SDS011;11050;52.222;20.916;2023-01-24T10:50:14;50.00;;;24.50;;
21777;SDS011;11050;52.222;20.916;2023-01-24T10:52:42;52.87;;;25.73;;
21777;SDS011;11050;52.222;20.916;2023-01-24T10:58:03;48.67;;;22.97;;
21777;SDS011;11050;52.222;20.916;2023-01-24T11:00:45;48.23;;;22.87;;
21777;SDS011;11050;52.222;20.916;2023-01-24T11:03:32;53.60;;;24.00;;
21777;SDS011;11050;52.222;20.916;2023-01-24T11:06:03;51.03;;;24.30;;
21777;SDS011;11050;52.222;20.916;2023-01-24T11:08:33;55.10;;;22.57;;
21777;SDS011;11050;52.222;20.916;2023-01-24T11:11:03;49.33;;;22.47;;
21777;SDS011;11050;52.222;20.916;2023-01-24T11:13:47;44.27;;;22.43;;
21777;SDS011;11050;52.222;20.916;2023-01-24T11:16:20;44.50;;;21.70;;
21777;SDS011;11050;52.222;20.916;2023-01-24T11:21:22;40.37;;;21.83;;
21777;SDS011;11050;52.222;20.916;2023-01-24T11:27:15;43.17;;;20.73;;
21777;SDS011;11050;52.222;20.916;2023-01-24T11:29:42;42.93;;;21.50;;
21777;SDS011;11050;52.222;20.916;2023-01-24T11:37:54;52.00;;;23.83;;
21777;SDS011;11050;52.222;20.916;2023-01-24T11:41:03;56.00;;;24.97;;
21777;SDS011;11050;52.222;20.916;2023-01-24T11:52:47;48.03;;;22.87;;
21777;SDS011;11050;52.222;20.916;2023-01-24T12:09:26;52.43;;;24.63;;
21777;SDS011;11050;52.222;20.916;2023-01-24T12:12:37;55.67;;;25.93;;
21777;SDS011;11050;52.222;20.916;2023-01-24T12:18:04;54.97;;;24.63;;
21777;SDS011;11050;52.222;20.916;2023-01-24T12:21:10;46.57;;;23.53;;
21777;SDS011;11050;52.222;20.916;2023-01-24T12:26:28;48.03;;;23.30;;
21777;SDS011;11050;52.222;20.916;2023-01-24T12:34:44;52.90;;;24.77;;
21777;SDS011;11050;52.222;20.916;2023-01-24T12:42:57;54.53;;;24.23;;
21777;SDS011;11050;52.222;20.916;2023-01-24T12:45:26;46.17;;;23.07;;
21777;SDS011;11050;52.222;20.916;2023-01-24T12:59:24;47.30;;;22.57;;
21777;SDS011;11050;52.222;20.916;2023-01-24T13:04:50;46.67;;;20.37;;
21777;SDS011;11050;52.222;20.916;2023-01-24T13:07:39;42.73;;;19.87;;
21777;SDS011;11050;52.222;20.916;2023-01-24T13:10:13;46.10;;;20.97;;
21777;SDS011;11050;52.222;20.916;2023-01-24T13:12:48;44.67;;;19.57;;
21777;SDS011;11050;52.222;20.916;2023-01-24T13:15:18;49.33;;;21.03;;
21777;SDS011;11050;52.222;20.916;2023-01-24T13:18:03;49.67;;;21.30;;
21777;SDS011;11050;52.222;20.916;2023-01-24T13:30:58;42.00;;;20.37;;
21777;SDS011;11050;52.222;20.916;2023-01-24T13:33:45;39.90;;;19.07;;
21777;SDS011;11050;52.222;20.916;2023-01-24T13:36:22;47.03;;;21.33;;
21777;SDS011;11050;52.222;20.916;2023-01-24T13:38:55;39.87;;;18.87;;
21777;SDS011;11050;52.222;20.916;2023-01-24T13:44:01;38.77;;;18.47;;
21777;SDS011;11050;52.222;20.916;2023-01-24T13:52:37;40.57;;;17.83;;
21777;SDS011;11050;52.222;20.916;2023-01-24T13:55:49;37.90;;;18.07;;
21777;SDS011;11050;52.222;20.916;2023-01-24T14:00:28;33.53;;;16.97;;
21777;SDS011;11050;52.222;20.916;2023-01-24T14:02:58;34.23;;;16.83;;
21777;SDS011;11050;52.222;20.916;2023-01-24T14:05:46;36.47;;;18.20;;
21777;SDS011;11050;52.222;20.916;2023-01-24T14:10:48;32.43;;;17.30;;
21777;SDS011;11050;52.222;20.916;2023-01-24T14:16:59;41.73;;;18.63;;
21777;SDS011;11050;52.222;20.916;2023-01-24T14:21:36;32.03;;;16.30;;
21777;SDS011;11050;52.222;20.916;2023-01-24T14:24:20;44.30;;;18.60;;
21777;SDS011;11050;52.222;20.916;2023-01-24T14:26:53;40.57;;;18.37;;
21777;SDS011;11050;52.222;20.916;2023-01-24T14:29:38;38.33;;;16.83;;
21777;SDS011;11050;52.222;20.916;2023-01-24T14:35:12;41.70;;;19.47;;
21777;SDS011;11050;52.222;20.916;2023-01-24T14:37:41;40.73;;;19.70;;
21777;SDS011;11050;52.222;20.916;2023-01-24T14:42:51;46.53;;;21.80;;
21777;SDS011;11050;52.222;20.916;2023-01-24T14:45:30;43.07;;;20.27;;
21777;SDS011;11050;52.222;20.916;2023-01-24T14:47:58;48.10;;;20.53;;
21777;SDS011;11050;52.222;20.916;2023-01-24T14:52:58;46.83;;;21.67;;
21777;SDS011;11050;52.222;20.916;2023-01-24T14:55:44;49.33;;;24.07;;
21777;SDS011;11050;52.222;20.916;2023-01-24T14:58:13;48.27;;;21.83;;
21777;SDS011;11050;52.222;20.916;2023-01-24T15:00:44;41.50;;;19.93;;
21777;SDS011;11050;52.222;20.916;2023-01-24T15:03:31;49.27;;;22.40;;
21777;SDS011;11050;52.222;20.916;2023-01-24T15:06:00;43.80;;;20.97;;
21777;SDS011;11050;52.222;20.916;2023-01-24T15:08:31;46.70;;;20.40;;
21777;SDS011;11050;52.222;20.916;2023-01-24T15:11:06;48.40;;;21.40;;
21777;SDS011;11050;52.222;20.916;2023-01-24T15:13:51;42.43;;;21.00;;
21777;SDS011;11050;52.222;20.916;2023-01-24T15:16:24;43.80;;;21.07;;
21777;SDS011;11050;52.222;20.916;2023-01-24T15:19:14;49.13;;;20.83;;
21777;SDS011;11050;52.222;20.916;2023-01-24T15:21:46;52.73;;;22.73;;
21777;SDS011;11050;52.222;20.916;2023-01-24T15:24:28;49.80;;;22.27;;
21777;SDS011;11050;52.222;20.916;2023-01-24T15:26:56;47.37;;;22.43;;
21777;SDS011;11050;52.222;20.916;2023-01-24T15:40:31;40.67;;;21.03;;
21777;SDS011;11050;52.222;20.916;2023-01-24T15:42:59;52.80;;;23.60;;
21777;SDS011;11050;52.222;20.916;2023-01-24T15:45:49;45.07;;;23.07;;
21777;SDS011;11050;52.222;20.916;2023-01-24T15:48:38;54.07;;;24.57;;
21777;SDS011;11050;52.222;20.916;2023-01-24T15:51:04;50.53;;;23.70;;
21777;SDS011;11050;52.222;20.916;2023-01-24T15:53:37;49.03;;;22.40;;
21777;SDS011;11050;52.222;20.916;2023-01-24T15:56:29;50.60;;;22.93;;
21777;SDS011;11050;52.222;20.916;2023-01-24T15:58:54;51.47;;;23.67;;
21777;SDS011;11050;52.222;20.916;2023-01-24T16:01:20;53.77;;;24.67;;
21777;SDS011;11050;52.222;20.916;2023-01-24T16:03:55;52.90;;;24.43;;
21777;SDS011;11050;52.222;20.916;2023-01-24T16:06:40;61.50;;;26.30;;
21777;SDS011;11050;52.222;20.916;2023-01-24T16:09:07;54.60;;;24.90;;
21777;SDS011;11050;52.222;20.916;2023-01-24T16:11:36;53.90;;;24.83;;
21777;SDS011;11050;52.222;20.916;2023-01-24T16:14:12;60.37;;;28.23;;
21777;SDS011;11050;52.222;20.916;2023-01-24T16:16:45;54.23;;;26.43;;
21777;SDS011;11050;52.222;20.916;2023-01-24T16:19:16;55.20;;;26.13;;
21777;SDS011;11050;52.222;20.916;2023-01-24T16:21:47;52.40;;;23.97;;
21777;SDS011;11050;52.222;20.916;2023-01-24T16:24:13;62.30;;;28.00;;
21777;SDS011;11050;52.222;20.916;2023-01-24T16:26:49;53.10;;;25.60;;
21777;SDS011;11050;52.222;20.916;2023-01-24T16:29:21;56.73;;;26.07;;
21777;SDS011;11050;52.222;20.916;2023-01-24T16:31:52;48.30;;;23.97;;
21777;SDS011;11050;52.222;20.916;2023-01-24T16:34:18;49.77;;;23.93;;
21777;SDS011;11050;52.222;20.916;2023-01-24T16:36:44;53.43;;;24.47;;
21777;SDS011;11050;52.222;20.916;2023-01-24T16:39:15;45.90;;;22.73;;
21777;SDS011;11050;52.222;20.916;2023-01-24T16:41:46;44.93;;;22.37;;
21777;SDS011;11050;52.222;20.916;2023-01-24T16:44:15;48.00;;;23.53;;
21777;SDS011;11050;52.222;20.916;2023-01-24T16:46:48;45.43;;;22.27;;
21777;SDS011;11050;52.222;20.916;2023-01-24T16:49:15;49.00;;;22.83;;
21777;SDS011;11050;52.222;20.916;2023-01-24T16:51:42;44.23;;;23.03;;
21777;SDS011;11050;52.222;20.916;2023-01-24T16:54:09;44.43;;;22.07;;
21777;SDS011;11050;52.222;20.916;2023-01-24T16:56:35;43.67;;;22.57;;
21777;SDS011;11050;52.222;20.916;2023-01-24T16:59:01;49.93;;;22.80;;
21777;SDS011;11050;52.222;20.916;2023-01-24T17:01:26;47.20;;;21.40;;
21777;SDS011;11050;52.222;20.916;2023-01-24T17:03:52;47.47;;;22.83;;
21777;SDS011;11050;52.222;20.916;2023-01-24T17:06:18;52.13;;;22.30;;
21777;SDS011;11050;52.222;20.916;2023-01-24T17:08:51;48.03;;;22.10;;